sensor_id;sensor_type;location;lat;lon;timestamp;temperature;humidity
29687;DHT22;16599;47.078;15.536;2022-11-23T00:01:30;3.90;99.90
29687;DHT22;16599;47.078;15.536;2022-11-23T00:04:01;3.90;99.90
29687;DHT22;16599;47.078;15.536;2022-11-23T00:06:28;3.90;99.90
29687;DHT22;16599;47.078;15.536;2022-11-23T00:08:56;3.90;99.90
29687;DHT22;16599;47.078;15.536;2022-11-23T00:11:25;3.90;99.90
29687;DHT22;16599;47.078;15.536;2022-11-23T00:13:53;3.90;99.90
29687;DHT22;16599;47.078;15.536;2022-11-23T00:16:22;3.90;99.90
29687;DHT22;16599;47.078;15.536;2022-11-23T00:18:52;3.90;99.90
29687;DHT22;16599;47.078;15.536;2022-11-23T00:21:20;3.90;99.90
29687;DHT22;16599;47.078;15.536;2022-11-23T00:23:47;3.90;99.90
29687;DHT22;16599;47.078;15.536;2022-11-23T00:26:16;3.90;99.90
29687;DHT22;16599;47.078;15.536;2022-11-23T00:28:43;3.90;99.90
29687;DHT22;16599;47.078;15.536;2022-11-23T00:31:12;3.90;99.90
29687;DHT22;16599;47.078;15.536;2022-11-23T00:33:40;3.80;99.90
29687;DHT22;16599;47.078;15.536;2022-11-23T00:36:13;3.80;99.90
29687;DHT22;16599;47.078;15.536;2022-11-23T00:38:41;3.70;99.90
29687;DHT22;16599;47.078;15.536;2022-11-23T00:41:13;3.80;99.90
29687;DHT22;16599;47.078;15.536;2022-11-23T00:43:41;3.80;99.90
29687;DHT22;16599;47.078;15.536;2022-11-23T00:46:18;3.70;99.90
29687;DHT22;16599;47.078;15.536;2022-11-23T00:48:47;3.70;99.90
29687;DHT22;16599;47.078;15.536;2022-11-23T00:51:18;3.80;99.90
29687;DHT22;16599;47.078;15.536;2022-11-23T00:53:45;3.80;99.90
29687;DHT22;16599;47.078;15.536;2022-11-23T00:56:13;3.80;99.90
29687;DHT22;16599;47.078;15.536;2022-11-23T00:58:39;3.80;99.90
29687;DHT22;16599;47.078;15.536;2022-11-23T01:01:12;3.80;99.90
29687;DHT22;16599;47.078;15.536;2022-11-23T01:03:44;3.70;99.90
29687;DHT22;16599;47.078;15.536;2022-11-23T01:06:20;3.70;99.90
29687;DHT22;16599;47.078;15.536;2022-11-23T01:08:48;3.70;99.90
29687;DHT22;16599;47.078;15.536;2022-11-23T01:11:17;3.70;99.90
29687;DHT22;16599;47.078;15.536;2022-11-23T01:13:44;3.70;99.90
29687;DHT22;16599;47.078;15.536;2022-11-23T01:16:19;3.70;99.90
29687;DHT22;16599;47.078;15.536;2022-11-23T01:18:58;3.50;99.90
29687;DHT22;16599;47.078;15.536;2022-11-23T01:21:26;3.60;99.90
29687;DHT22;16599;47.078;15.536;2022-11-23T01:23:54;3.60;99.90
29687;DHT22;16599;47.078;15.536;2022-11-23T01:26:21;3.50;99.90
29687;DHT22;16599;47.078;15.536;2022-11-23T01:28:48;3.60;99.90
29687;DHT22;16599;47.078;15.536;2022-11-23T01:31:19;3.60;99.90
29687;DHT22;16599;47.078;15.536;2022-11-23T01:33:46;3.60;99.90
29687;DHT22;16599;47.078;15.536;2022-11-23T01:36:16;3.60;99.90
29687;DHT22;16599;47.078;15.536;2022-11-23T01:38:43;3.70;99.90
29687;DHT22;16599;47.078;15.536;2022-11-23T01:41:19;3.70;99.90
29687;DHT22;16599;47.078;15.536;2022-11-23T01:43:47;3.70;99.90
29687;DHT22;16599;47.078;15.536;2022-11-23T01:46:13;3.80;99.90
29687;DHT22;16599;47.078;15.536;2022-11-23T01:51:15;3.70;99.90
29687;DHT22;16599;47.078;15.536;2022-11-23T01:53:45;3.80;99.90
29687;DHT22;16599;47.078;15.536;2022-11-23T01:56:19;3.80;99.90
29687;DHT22;16599;47.078;15.536;2022-11-23T01:58:50;3.80;99.90
29687;DHT22;16599;47.078;15.536;2022-11-23T02:01:18;3.80;99.90
29687;DHT22;16599;47.078;15.536;2022-11-23T02:03:46;3.80;99.90
29687;DHT22;16599;47.078;15.536;2022-11-23T02:06:17;3.80;99.90
29687;DHT22;16599;47.078;15.536;2022-11-23T02:08:45;3.90;99.90
29687;DHT22;16599;47.078;15.536;2022-11-23T02:11:14;3.90;99.90
29687;DHT22;16599;47.078;15.536;2022-11-23T02:13:46;3.90;99.90
29687;DHT22;16599;47.078;15.536;2022-11-23T02:16:14;3.80;99.90
29687;DHT22;16599;47.078;15.536;2022-11-23T02:18:44;3.80;99.90
29687;DHT22;16599;47.078;15.536;2022-11-23T02:21:12;3.80;99.90
29687;DHT22;16599;47.078;15.536;2022-11-23T02:23:58;3.90;99.90
29687;DHT22;16599;47.078;15.536;2022-11-23T02:26:32;3.80;99.90
29687;DHT22;16599;47.078;15.536;2022-11-23T02:29:19;3.80;99.90
29687;DHT22;16599;47.078;15.536;2022-11-23T02:31:48;3.80;99.90
29687;DHT22;16599;47.078;15.536;2022-11-23T02:34:16;3.80;99.90
29687;DHT22;16599;47.078;15.536;2022-11-23T02:36:49;3.70;99.90
29687;DHT22;16599;47.078;15.536;2022-11-23T02:42:17;3.80;99.90
29687;DHT22;16599;47.078;15.536;2022-11-23T02:47:14;3.80;99.90
29687;DHT22;16599;47.078;15.536;2022-11-23T02:49:44;3.70;99.90
29687;DHT22;16599;47.078;15.536;2022-11-23T02:52:12;3.60;99.90
29687;DHT22;16599;47.078;15.536;2022-11-23T02:54:39;3.60;99.90
29687;DHT22;16599;47.078;15.536;2022-11-23T02:57:06;3.70;99.90
29687;DHT22;16599;47.078;15.536;2022-11-23T02:59:33;3.70;99.90
29687;DHT22;16599;47.078;15.536;2022-11-23T03:02:02;3.80;99.90
29687;DHT22;16599;47.078;15.536;2022-11-23T03:04:29;3.70;99.90
29687;DHT22;16599;47.078;15.536;2022-11-23T03:06:56;3.70;99.90
29687;DHT22;16599;47.078;15.536;2022-11-23T03:09:23;3.70;99.90
29687;DHT22;16599;47.078;15.536;2022-11-23T03:11:52;3.70;99.90
29687;DHT22;16599;47.078;15.536;2022-11-23T03:14:19;3.70;99.90
29687;DHT22;16599;47.078;15.536;2022-11-23T03:16:46;3.70;99.90
29687;DHT22;16599;47.078;15.536;2022-11-23T03:19:13;3.70;99.90
29687;DHT22;16599;47.078;15.536;2022-11-23T03:21:40;3.70;99.90
29687;DHT22;16599;47.078;15.536;2022-11-23T03:24:06;3.70;99.90
29687;DHT22;16599;47.078;15.536;2022-11-23T03:26:33;3.70;99.90
29687;DHT22;16599;47.078;15.536;2022-11-23T03:29:00;3.70;99.90
29687;DHT22;16599;47.078;15.536;2022-11-23T03:31:27;3.70;99.90
29687;DHT22;16599;47.078;15.536;2022-11-23T03:33:54;3.70;99.90
29687;DHT22;16599;47.078;15.536;2022-11-23T03:36:20;3.70;99.90
29687;DHT22;16599;47.078;15.536;2022-11-23T03:38:47;3.70;99.90
29687;DHT22;16599;47.078;15.536;2022-11-23T03:41:14;3.70;99.90
29687;DHT22;16599;47.078;15.536;2022-11-23T03:43:41;3.80;99.90
29687;DHT22;16599;47.078;15.536;2022-11-23T03:46:08;3.60;99.90
29687;DHT22;16599;47.078;15.536;2022-11-23T03:48:34;3.60;99.90
29687;DHT22;16599;47.078;15.536;2022-11-23T03:51:01;3.70;99.90
29687;DHT22;16599;47.078;15.536;2022-11-23T03:53:28;3.60;99.90
29687;DHT22;16599;47.078;15.536;2022-11-23T03:55:55;3.60;99.90
29687;DHT22;16599;47.078;15.536;2022-11-23T03:58:23;3.50;99.90
29687;DHT22;16599;47.078;15.536;2022-11-23T04:00:50;3.50;99.90
29687;DHT22;16599;47.078;15.536;2022-11-23T04:03:16;3.50;99.90
29687;DHT22;16599;47.078;15.536;2022-11-23T04:05:43;3.50;99.90
29687;DHT22;16599;47.078;15.536;2022-11-23T04:08:10;3.50;99.90
29687;DHT22;16599;47.078;15.536;2022-11-23T04:10:37;3.50;99.90
29687;DHT22;16599;47.078;15.536;2022-11-23T04:13:04;3.60;99.90
29687;DHT22;16599;47.078;15.536;2022-11-23T04:15:30;3.50;99.90
29687;DHT22;16599;47.078;15.536;2022-11-23T04:17:57;3.50;99.90
29687;DHT22;16599;47.078;15.536;2022-11-23T04:20:24;3.60;99.90
29687;DHT22;16599;47.078;15.536;2022-11-23T04:22:51;3.60;99.90
29687;DHT22;16599;47.078;15.536;2022-11-23T04:25:18;3.60;99.90
29687;DHT22;16599;47.078;15.536;2022-11-23T04:27:44;3.60;99.90
29687;DHT22;16599;47.078;15.536;2022-11-23T04:30:12;3.60;99.90
29687;DHT22;16599;47.078;15.536;2022-11-23T04:32:39;3.50;99.90
29687;DHT22;16599;47.078;15.536;2022-11-23T04:35:07;3.60;99.90
29687;DHT22;16599;47.078;15.536;2022-11-23T04:37:34;3.60;99.90
29687;DHT22;16599;47.078;15.536;2022-11-23T04:40:01;3.70;99.90
29687;DHT22;16599;47.078;15.536;2022-11-23T04:42:27;3.60;99.90
29687;DHT22;16599;47.078;15.536;2022-11-23T04:44:54;3.60;99.90
29687;DHT22;16599;47.078;15.536;2022-11-23T04:47:23;3.60;99.90
29687;DHT22;16599;47.078;15.536;2022-11-23T04:49:50;3.60;99.90
29687;DHT22;16599;47.078;15.536;2022-11-23T04:52:17;3.50;99.90
29687;DHT22;16599;47.078;15.536;2022-11-23T04:54:44;3.50;99.90
29687;DHT22;16599;47.078;15.536;2022-11-23T04:57:11;3.50;99.90
29687;DHT22;16599;47.078;15.536;2022-11-23T04:59:37;3.50;99.90
29687;DHT22;16599;47.078;15.536;2022-11-23T05:02:04;3.60;99.90
29687;DHT22;16599;47.078;15.536;2022-11-23T05:04:32;3.60;99.90
29687;DHT22;16599;47.078;15.536;2022-11-23T05:06:59;3.50;99.90
29687;DHT22;16599;47.078;15.536;2022-11-23T05:09:26;3.60;99.90
29687;DHT22;16599;47.078;15.536;2022-11-23T05:11:53;3.50;99.90
29687;DHT22;16599;47.078;15.536;2022-11-23T05:14:20;3.40;99.90
29687;DHT22;16599;47.078;15.536;2022-11-23T05:16:47;3.50;99.90
29687;DHT22;16599;47.078;15.536;2022-11-23T05:19:13;3.60;99.90
29687;DHT22;16599;47.078;15.536;2022-11-23T05:21:40;3.60;99.90
29687;DHT22;16599;47.078;15.536;2022-11-23T05:24:07;3.60;99.90
29687;DHT22;16599;47.078;15.536;2022-11-23T05:26:34;3.60;99.90
29687;DHT22;16599;47.078;15.536;2022-11-23T05:29:01;3.50;99.90
29687;DHT22;16599;47.078;15.536;2022-11-23T05:31:27;3.50;99.90
29687;DHT22;16599;47.078;15.536;2022-11-23T05:33:54;3.40;99.90
29687;DHT22;16599;47.078;15.536;2022-11-23T05:36:21;3.50;99.90
29687;DHT22;16599;47.078;15.536;2022-11-23T05:38:48;3.50;99.90
29687;DHT22;16599;47.078;15.536;2022-11-23T05:41:15;3.50;99.90
29687;DHT22;16599;47.078;15.536;2022-11-23T05:43:41;3.50;99.90
29687;DHT22;16599;47.078;15.536;2022-11-23T05:46:08;3.60;99.90
29687;DHT22;16599;47.078;15.536;2022-11-23T05:48:35;3.70;99.90
29687;DHT22;16599;47.078;15.536;2022-11-23T05:51:02;3.70;99.90
29687;DHT22;16599;47.078;15.536;2022-11-23T05:53:31;3.60;99.90
29687;DHT22;16599;47.078;15.536;2022-11-23T05:55:59;3.70;99.90
29687;DHT22;16599;47.078;15.536;2022-11-23T05:58:27;3.60;99.90
29687;DHT22;16599;47.078;15.536;2022-11-23T06:00:58;3.40;99.90
29687;DHT22;16599;47.078;15.536;2022-11-23T06:03:25;3.40;99.90
29687;DHT22;16599;47.078;15.536;2022-11-23T06:05:52;3.40;99.90
29687;DHT22;16599;47.078;15.536;2022-11-23T06:08:19;3.50;99.90
29687;DHT22;16599;47.078;15.536;2022-11-23T06:10:46;3.60;99.90
29687;DHT22;16599;47.078;15.536;2022-11-23T06:13:13;3.60;99.90
29687;DHT22;16599;47.078;15.536;2022-11-23T06:15:40;3.50;99.90
29687;DHT22;16599;47.078;15.536;2022-11-23T06:18:07;3.40;99.90
29687;DHT22;16599;47.078;15.536;2022-11-23T06:20:34;3.40;99.90
29687;DHT22;16599;47.078;15.536;2022-11-23T06:23:01;3.30;99.90
29687;DHT22;16599;47.078;15.536;2022-11-23T06:25:28;3.30;99.90
29687;DHT22;16599;47.078;15.536;2022-11-23T06:27:57;3.30;99.90
29687;DHT22;16599;47.078;15.536;2022-11-23T06:30:26;3.40;99.90
29687;DHT22;16599;47.078;15.536;2022-11-23T06:32:53;3.40;99.90
29687;DHT22;16599;47.078;15.536;2022-11-23T06:35:20;3.50;99.90
29687;DHT22;16599;47.078;15.536;2022-11-23T06:37:48;3.50;99.90
29687;DHT22;16599;47.078;15.536;2022-11-23T06:40:15;3.60;99.90
29687;DHT22;16599;47.078;15.536;2022-11-23T06:42:42;3.60;99.90
29687;DHT22;16599;47.078;15.536;2022-11-23T06:45:09;3.60;99.90
29687;DHT22;16599;47.078;15.536;2022-11-23T06:47:36;3.70;99.90
29687;DHT22;16599;47.078;15.536;2022-11-23T06:50:03;3.70;99.90
29687;DHT22;16599;47.078;15.536;2022-11-23T06:52:31;3.60;99.90
29687;DHT22;16599;47.078;15.536;2022-11-23T06:54:58;3.60;99.90
29687;DHT22;16599;47.078;15.536;2022-11-23T06:57:25;3.60;99.90
29687;DHT22;16599;47.078;15.536;2022-11-23T06:59:51;3.60;99.90
29687;DHT22;16599;47.078;15.536;2022-11-23T07:02:18;3.70;99.90
29687;DHT22;16599;47.078;15.536;2022-11-23T07:04:45;3.70;99.90
29687;DHT22;16599;47.078;15.536;2022-11-23T07:07:12;3.70;99.90
29687;DHT22;16599;47.078;15.536;2022-11-23T07:09:39;3.70;99.90
29687;DHT22;16599;47.078;15.536;2022-11-23T07:12:06;3.80;99.90
29687;DHT22;16599;47.078;15.536;2022-11-23T07:14:33;3.80;99.90
29687;DHT22;16599;47.078;15.536;2022-11-23T07:16:59;3.80;99.90
29687;DHT22;16599;47.078;15.536;2022-11-23T07:19:26;3.80;99.90
29687;DHT22;16599;47.078;15.536;2022-11-23T07:21:53;3.80;99.90
29687;DHT22;16599;47.078;15.536;2022-11-23T07:24:41;3.80;99.90
29687;DHT22;16599;47.078;15.536;2022-11-23T07:27:12;3.80;99.90
29687;DHT22;16599;47.078;15.536;2022-11-23T07:29:39;3.80;99.90
29687;DHT22;16599;47.078;15.536;2022-11-23T07:32:06;3.90;99.90
29687;DHT22;16599;47.078;15.536;2022-11-23T07:34:34;3.90;99.90
29687;DHT22;16599;47.078;15.536;2022-11-23T07:37:00;3.80;99.90
29687;DHT22;16599;47.078;15.536;2022-11-23T07:39:28;3.80;99.90
29687;DHT22;16599;47.078;15.536;2022-11-23T07:42:15;3.90;99.90
29687;DHT22;16599;47.078;15.536;2022-11-23T07:44:59;3.90;99.90
29687;DHT22;16599;47.078;15.536;2022-11-23T07:47:26;3.90;99.90
29687;DHT22;16599;47.078;15.536;2022-11-23T07:49:53;3.90;99.90
29687;DHT22;16599;47.078;15.536;2022-11-23T07:52:19;3.90;99.90
29687;DHT22;16599;47.078;15.536;2022-11-23T07:54:46;3.90;99.90
29687;DHT22;16599;47.078;15.536;2022-11-23T07:57:13;3.90;99.90
29687;DHT22;16599;47.078;15.536;2022-11-23T07:59:40;4.00;99.90
29687;DHT22;16599;47.078;15.536;2022-11-23T08:02:10;4.00;99.90
29687;DHT22;16599;47.078;15.536;2022-11-23T08:04:38;4.00;99.90
29687;DHT22;16599;47.078;15.536;2022-11-23T08:07:05;4.10;99.90
29687;DHT22;16599;47.078;15.536;2022-11-23T08:09:32;4.10;99.90
29687;DHT22;16599;47.078;15.536;2022-11-23T08:11:59;4.10;99.90
29687;DHT22;16599;47.078;15.536;2022-11-23T08:14:25;4.20;99.90
29687;DHT22;16599;47.078;15.536;2022-11-23T08:16:52;4.20;99.90
29687;DHT22;16599;47.078;15.536;2022-11-23T08:19:19;4.20;99.90
29687;DHT22;16599;47.078;15.536;2022-11-23T08:21:46;4.20;99.90
29687;DHT22;16599;47.078;15.536;2022-11-23T08:24:13;4.20;99.90
29687;DHT22;16599;47.078;15.536;2022-11-23T08:26:40;4.30;99.90
29687;DHT22;16599;47.078;15.536;2022-11-23T08:29:06;4.20;99.90
29687;DHT22;16599;47.078;15.536;2022-11-23T08:31:33;4.10;99.90
29687;DHT22;16599;47.078;15.536;2022-11-23T08:34:00;4.20;99.90
29687;DHT22;16599;47.078;15.536;2022-11-23T08:36:29;4.20;99.90
29687;DHT22;16599;47.078;15.536;2022-11-23T08:38:56;4.20;99.90
29687;DHT22;16599;47.078;15.536;2022-11-23T08:41:22;4.30;99.90
29687;DHT22;16599;47.078;15.536;2022-11-23T08:43:50;4.30;99.90
29687;DHT22;16599;47.078;15.536;2022-11-23T08:46:17;4.40;99.90
29687;DHT22;16599;47.078;15.536;2022-11-23T08:48:45;4.40;99.90
29687;DHT22;16599;47.078;15.536;2022-11-23T08:51:11;4.50;99.90
29687;DHT22;16599;47.078;15.536;2022-11-23T08:53:38;4.50;99.90
29687;DHT22;16599;47.078;15.536;2022-11-23T08:56:06;4.60;99.90
29687;DHT22;16599;47.078;15.536;2022-11-23T08:58:33;4.60;99.90
29687;DHT22;16599;47.078;15.536;2022-11-23T09:01:07;4.50;99.90
29687;DHT22;16599;47.078;15.536;2022-11-23T09:03:34;4.60;99.90
29687;DHT22;16599;47.078;15.536;2022-11-23T09:06:01;4.60;99.90
29687;DHT22;16599;47.078;15.536;2022-11-23T09:08:28;4.70;99.90
29687;DHT22;16599;47.078;15.536;2022-11-23T09:11:02;4.90;99.90
29687;DHT22;16599;47.078;15.536;2022-11-23T09:13:29;5.00;99.90
29687;DHT22;16599;47.078;15.536;2022-11-23T09:15:58;5.00;99.90
29687;DHT22;16599;47.078;15.536;2022-11-23T09:18:26;5.10;99.90
29687;DHT22;16599;47.078;15.536;2022-11-23T09:20:53;5.10;99.90
29687;DHT22;16599;47.078;15.536;2022-11-23T09:23:20;5.20;99.90
29687;DHT22;16599;47.078;15.536;2022-11-23T09:25:46;5.20;99.90
29687;DHT22;16599;47.078;15.536;2022-11-23T09:28:16;5.30;99.90
29687;DHT22;16599;47.078;15.536;2022-11-23T09:30:46;5.30;99.90
29687;DHT22;16599;47.078;15.536;2022-11-23T09:33:13;5.40;99.90
29687;DHT22;16599;47.078;15.536;2022-11-23T09:35:40;5.40;99.90
29687;DHT22;16599;47.078;15.536;2022-11-23T09:38:09;5.40;99.90
29687;DHT22;16599;47.078;15.536;2022-11-23T09:40:39;5.50;99.90
29687;DHT22;16599;47.078;15.536;2022-11-23T09:46:24;5.50;99.90
29687;DHT22;16599;47.078;15.536;2022-11-23T09:49:12;5.50;99.90
29687;DHT22;16599;47.078;15.536;2022-11-23T09:51:41;5.50;99.90
29687;DHT22;16599;47.078;15.536;2022-11-23T09:54:30;5.60;99.90
29687;DHT22;16599;47.078;15.536;2022-11-23T09:56:58;5.50;99.90
29687;DHT22;16599;47.078;15.536;2022-11-23T10:00:02;5.60;99.90
29687;DHT22;16599;47.078;15.536;2022-11-23T10:02:31;5.60;99.90
29687;DHT22;16599;47.078;15.536;2022-11-23T10:05:00;5.70;99.90
29687;DHT22;16599;47.078;15.536;2022-11-23T10:10:43;5.70;99.90
29687;DHT22;16599;47.078;15.536;2022-11-23T10:13:36;5.80;99.90
29687;DHT22;16599;47.078;15.536;2022-11-23T10:21:50;5.80;99.90
29687;DHT22;16599;47.078;15.536;2022-11-23T10:24:26;5.70;99.90
29687;DHT22;16599;47.078;15.536;2022-11-23T10:26:56;5.70;99.90
29687;DHT22;16599;47.078;15.536;2022-11-23T10:29:34;5.70;99.90
29687;DHT22;16599;47.078;15.536;2022-11-23T10:32:01;5.70;99.90
29687;DHT22;16599;47.078;15.536;2022-11-23T10:37:23;5.70;99.90
29687;DHT22;16599;47.078;15.536;2022-11-23T10:39:50;5.80;99.90
29687;DHT22;16599;47.078;15.536;2022-11-23T10:42:29;5.80;99.90
29687;DHT22;16599;47.078;15.536;2022-11-23T10:44:58;5.80;99.90
29687;DHT22;16599;47.078;15.536;2022-11-23T10:47:36;5.80;99.90
29687;DHT22;16599;47.078;15.536;2022-11-23T10:50:22;5.80;99.90
29687;DHT22;16599;47.078;15.536;2022-11-23T10:52:56;5.80;99.90
29687;DHT22;16599;47.078;15.536;2022-11-23T10:55:29;5.80;99.90
29687;DHT22;16599;47.078;15.536;2022-11-23T10:57:57;5.90;99.90
29687;DHT22;16599;47.078;15.536;2022-11-23T11:00:27;6.00;99.90
29687;DHT22;16599;47.078;15.536;2022-11-23T11:02:57;5.90;99.90
29687;DHT22;16599;47.078;15.536;2022-11-23T11:05:37;6.00;99.90
29687;DHT22;16599;47.078;15.536;2022-11-23T11:08:30;5.90;99.90
29687;DHT22;16599;47.078;15.536;2022-11-23T11:11:02;6.00;99.90
29687;DHT22;16599;47.078;15.536;2022-11-23T11:16:01;6.20;99.90
29687;DHT22;16599;47.078;15.536;2022-11-23T11:18:37;6.20;99.90
29687;DHT22;16599;47.078;15.536;2022-11-23T11:21:22;6.20;99.90
29687;DHT22;16599;47.078;15.536;2022-11-23T11:23:52;6.30;99.90
29687;DHT22;16599;47.078;15.536;2022-11-23T11:26:22;6.20;99.90
29687;DHT22;16599;47.078;15.536;2022-11-23T11:28:51;6.20;99.90
29687;DHT22;16599;47.078;15.536;2022-11-23T11:34:19;6.10;99.90
29687;DHT22;16599;47.078;15.536;2022-11-23T11:39:43;6.20;99.90
29687;DHT22;16599;47.078;15.536;2022-11-23T11:42:22;6.10;99.90
29687;DHT22;16599;47.078;15.536;2022-11-23T11:44:55;6.20;99.90
29687;DHT22;16599;47.078;15.536;2022-11-23T11:47:40;6.20;99.90
29687;DHT22;16599;47.078;15.536;2022-11-23T11:50:43;6.30;99.90
29687;DHT22;16599;47.078;15.536;2022-11-23T11:53:16;6.40;99.90
29687;DHT22;16599;47.078;15.536;2022-11-23T11:56:02;6.40;99.90
29687;DHT22;16599;47.078;15.536;2022-11-23T11:58:30;6.50;99.90
29687;DHT22;16599;47.078;15.536;2022-11-23T12:01:07;6.40;99.90
29687;DHT22;16599;47.078;15.536;2022-11-23T12:03:45;6.40;99.90
29687;DHT22;16599;47.078;15.536;2022-11-23T12:06:20;6.40;99.90
29687;DHT22;16599;47.078;15.536;2022-11-23T12:11:32;6.40;99.90
29687;DHT22;16599;47.078;15.536;2022-11-23T12:14:01;6.40;99.90
29687;DHT22;16599;47.078;15.536;2022-11-23T12:46:48;6.40;99.90
29687;DHT22;16599;47.078;15.536;2022-11-23T12:55:00;6.30;99.90
29687;DHT22;16599;47.078;15.536;2022-11-23T12:57:43;6.40;99.90
29687;DHT22;16599;47.078;15.536;2022-11-23T13:00:18;6.40;99.90
29687;DHT22;16599;47.078;15.536;2022-11-23T13:03:18;6.50;99.90
29687;DHT22;16599;47.078;15.536;2022-11-23T13:24:01;6.50;99.90
29687;DHT22;16599;47.078;15.536;2022-11-23T13:26:29;6.60;99.90
29687;DHT22;16599;47.078;15.536;2022-11-23T13:28:58;6.60;99.90
29687;DHT22;16599;47.078;15.536;2022-11-23T13:31:31;6.60;99.90
29687;DHT22;16599;47.078;15.536;2022-11-23T13:34:01;6.60;99.90
29687;DHT22;16599;47.078;15.536;2022-11-23T13:36:36;6.60;99.90
29687;DHT22;16599;47.078;15.536;2022-11-23T13:42:23;6.50;99.90
29687;DHT22;16599;47.078;15.536;2022-11-23T13:45:52;6.50;99.90
29687;DHT22;16599;47.078;15.536;2022-11-23T13:48:09;6.50;99.90
29687;DHT22;16599;47.078;15.536;2022-11-23T13:51:00;6.50;99.90
29687;DHT22;16599;47.078;15.536;2022-11-23T13:53:58;6.40;99.90
29687;DHT22;16599;47.078;15.536;2022-11-23T13:56:40;6.40;99.90
29687;DHT22;16599;47.078;15.536;2022-11-23T14:04:45;6.30;99.90
29687;DHT22;16599;47.078;15.536;2022-11-23T14:07:33;6.20;99.90
29687;DHT22;16599;47.078;15.536;2022-11-23T14:10:17;6.20;99.90
29687;DHT22;16599;47.078;15.536;2022-11-23T14:13:01;6.20;99.90
29687;DHT22;16599;47.078;15.536;2022-11-23T14:15:33;6.10;99.90
29687;DHT22;16599;47.078;15.536;2022-11-23T14:18:28;6.10;99.90
29687;DHT22;16599;47.078;15.536;2022-11-23T14:26:45;6.10;99.90
29687;DHT22;16599;47.078;15.536;2022-11-23T14:29:28;6.10;99.90
29687;DHT22;16599;47.078;15.536;2022-11-23T14:37:47;5.80;99.90
29687;DHT22;16599;47.078;15.536;2022-11-23T14:42:56;5.90;99.90
29687;DHT22;16599;47.078;15.536;2022-11-23T14:45:27;5.90;99.90
29687;DHT22;16599;47.078;15.536;2022-11-23T14:47:55;5.90;99.90
29687;DHT22;16599;47.078;15.536;2022-11-23T14:50:27;5.80;99.90
29687;DHT22;16599;47.078;15.536;2022-11-23T14:52:56;5.80;99.90
29687;DHT22;16599;47.078;15.536;2022-11-23T14:55:27;5.80;99.90
29687;DHT22;16599;47.078;15.536;2022-11-23T14:58:04;5.70;99.90
29687;DHT22;16599;47.078;15.536;2022-11-23T15:00:40;5.70;99.90
29687;DHT22;16599;47.078;15.536;2022-11-23T15:03:17;5.60;99.90
29687;DHT22;16599;47.078;15.536;2022-11-23T15:06:15;5.60;99.90
29687;DHT22;16599;47.078;15.536;2022-11-23T15:08:56;5.50;99.90
29687;DHT22;16599;47.078;15.536;2022-11-23T15:11:26;5.50;99.90
29687;DHT22;16599;47.078;15.536;2022-11-23T15:13:54;5.50;99.90
29687;DHT22;16599;47.078;15.536;2022-11-23T15:16:50;5.50;99.90
29687;DHT22;16599;47.078;15.536;2022-11-23T15:19:27;5.40;99.90
29687;DHT22;16599;47.078;15.536;2022-11-23T15:21:55;5.30;99.90
29687;DHT22;16599;47.078;15.536;2022-11-23T15:24:40;5.30;99.90
29687;DHT22;16599;47.078;15.536;2022-11-23T15:27:15;5.30;99.90
29687;DHT22;16599;47.078;15.536;2022-11-23T15:29:50;5.20;99.90
29687;DHT22;16599;47.078;15.536;2022-11-23T15:32:31;5.10;99.90
29687;DHT22;16599;47.078;15.536;2022-11-23T15:35:04;5.10;99.90
29687;DHT22;16599;47.078;15.536;2022-11-23T15:37:45;5.10;99.90
29687;DHT22;16599;47.078;15.536;2022-11-23T15:40:14;4.80;99.90
29687;DHT22;16599;47.078;15.536;2022-11-23T15:42:43;4.80;99.90
29687;DHT22;16599;47.078;15.536;2022-11-23T15:51:00;4.80;99.90
29687;DHT22;16599;47.078;15.536;2022-11-23T15:53:30;4.80;99.90
29687;DHT22;16599;47.078;15.536;2022-11-23T15:56:00;4.80;99.90
29687;DHT22;16599;47.078;15.536;2022-11-23T15:58:28;4.70;99.90
29687;DHT22;16599;47.078;15.536;2022-11-23T16:01:06;4.80;99.90
29687;DHT22;16599;47.078;15.536;2022-11-23T16:03:46;4.40;99.90
29687;DHT22;16599;47.078;15.536;2022-11-23T16:06:21;4.30;99.90
29687;DHT22;16599;47.078;15.536;2022-11-23T16:08:48;4.20;99.90
29687;DHT22;16599;47.078;15.536;2022-11-23T16:14:27;4.50;99.90
29687;DHT22;16599;47.078;15.536;2022-11-23T16:17:05;4.60;99.90
29687;DHT22;16599;47.078;15.536;2022-11-23T16:19:38;4.40;99.90
29687;DHT22;16599;47.078;15.536;2022-11-23T16:22:06;4.30;99.90
29687;DHT22;16599;47.078;15.536;2022-11-23T16:24:34;4.10;99.90
29687;DHT22;16599;47.078;15.536;2022-11-23T16:27:11;4.10;99.90
29687;DHT22;16599;47.078;15.536;2022-11-23T16:29:39;4.10;99.90
29687;DHT22;16599;47.078;15.536;2022-11-23T16:32:25;3.80;99.90
29687;DHT22;16599;47.078;15.536;2022-11-23T16:34:53;3.70;99.90
29687;DHT22;16599;47.078;15.536;2022-11-23T16:37:20;3.70;99.90
29687;DHT22;16599;47.078;15.536;2022-11-23T16:39:47;3.80;99.90
29687;DHT22;16599;47.078;15.536;2022-11-23T16:42:15;3.90;99.90
29687;DHT22;16599;47.078;15.536;2022-11-23T16:44:42;3.70;99.90
29687;DHT22;16599;47.078;15.536;2022-11-23T16:47:24;3.70;99.90
29687;DHT22;16599;47.078;15.536;2022-11-23T16:49:51;3.80;99.90
29687;DHT22;16599;47.078;15.536;2022-11-23T16:52:19;3.90;99.90
29687;DHT22;16599;47.078;15.536;2022-11-23T16:54:48;3.90;99.90
29687;DHT22;16599;47.078;15.536;2022-11-23T16:57:32;3.50;99.90
29687;DHT22;16599;47.078;15.536;2022-11-23T17:00:11;3.40;99.90
29687;DHT22;16599;47.078;15.536;2022-11-23T17:02:39;3.30;99.90
29687;DHT22;16599;47.078;15.536;2022-11-23T17:05:18;3.50;99.90
29687;DHT22;16599;47.078;15.536;2022-11-23T17:07:45;3.60;99.90
29687;DHT22;16599;47.078;15.536;2022-11-23T17:10:13;3.60;99.90
29687;DHT22;16599;47.078;15.536;2022-11-23T17:12:48;3.60;99.90
29687;DHT22;16599;47.078;15.536;2022-11-23T17:15:18;3.70;99.90
29687;DHT22;16599;47.078;15.536;2022-11-23T17:17:46;3.50;99.90
29687;DHT22;16599;47.078;15.536;2022-11-23T17:20:13;3.50;99.90
29687;DHT22;16599;47.078;15.536;2022-11-23T17:22:41;3.50;99.90
29687;DHT22;16599;47.078;15.536;2022-11-23T17:25:09;3.50;99.90
29687;DHT22;16599;47.078;15.536;2022-11-23T17:27:41;3.60;99.90
29687;DHT22;16599;47.078;15.536;2022-11-23T17:30:15;3.40;99.90
29687;DHT22;16599;47.078;15.536;2022-11-23T17:32:42;3.40;99.90
29687;DHT22;16599;47.078;15.536;2022-11-23T17:35:09;3.30;99.90
29687;DHT22;16599;47.078;15.536;2022-11-23T17:37:36;3.20;99.90
29687;DHT22;16599;47.078;15.536;2022-11-23T17:40:03;3.20;99.90
29687;DHT22;16599;47.078;15.536;2022-11-23T17:42:30;3.20;99.90
29687;DHT22;16599;47.078;15.536;2022-11-23T17:44:56;3.30;99.90
29687;DHT22;16599;47.078;15.536;2022-11-23T17:47:25;3.30;99.90
29687;DHT22;16599;47.078;15.536;2022-11-23T17:49:56;3.40;99.90
29687;DHT22;16599;47.078;15.536;2022-11-23T17:52:23;3.50;99.90